CCM721 LFBO-LFKJ
Flight info
| Callsign | CCM721 |
|---|---|
| Flight time | 0h 59m |
| Altitude | 33000 |
| Route | AMOLO DCT DEGOL DCT FJR DCT AMFAC DCT RUBAS |
| Aircraft | A320/M-SDE3FGHIRWY/LB1 |
Departure
| Time | 2026-04-29 15:07 |
|---|---|
| Airport | Toulouse-Blagnac Airport (LFBO) |
Arrival
| Time | 2026-04-29 16:07 |
|---|---|
| Airport | Ajaccio Napoléon Bonaparte airport (LFKJ) |
| Time | Latitude | Longitude | Altitude | Speed | Heading |
|---|---|---|---|---|---|
| 2026-04-29 14:24 | 43.63136 | 1.37006 | 0 ft | 0 kts | 66° |
| 2026-04-29 14:53 | 43.63136 | 1.37005 | 0 ft | 1 kts | 66° |
| 2026-04-29 14:54 | 43.63126 | 1.36974 | 425 ft | 4 kts | 67° |
| 2026-04-29 14:54 | 43.63117 | 1.36948 | 485 ft | 4 kts | 63° |
| 2026-04-29 14:54 | 43.63104 | 1.36916 | 483 ft | 4 kts | 44° |
| 2026-04-29 14:54 | 43.63091 | 1.36901 | 486 ft | 4 kts | 320° |
| 2026-04-29 14:55 | 43.63072 | 1.36926 | 488 ft | 4 kts | 309° |
| 2026-04-29 14:55 | 43.63058 | 1.36957 | 489 ft | 4 kts | 298° |
| 2026-04-29 14:55 | 43.63051 | 1.36972 | 488 ft | 0 kts | 301° |
| 2026-04-29 14:58 | 43.63053 | 1.36968 | 488 ft | 3 kts | 301° |
| 2026-04-29 14:59 | 43.63068 | 1.36937 | 483 ft | 8 kts | 306° |
| 2026-04-29 14:59 | 43.63112 | 1.36875 | 492 ft | 5 kts | 317° |
| 2026-04-29 14:59 | 43.63123 | 1.36838 | 492 ft | 5 kts | 263° |
| 2026-04-29 14:59 | 43.63098 | 1.36780 | 489 ft | 7 kts | 250° |
| 2026-04-29 15:00 | 43.63116 | 1.36720 | 492 ft | 7 kts | 317° |
| 2026-04-29 15:00 | 43.63166 | 1.36667 | 491 ft | 15 kts | 323° |
| 2026-04-29 15:00 | 43.63253 | 1.36577 | 492 ft | 15 kts | 323° |
| 2026-04-29 15:00 | 43.63330 | 1.36497 | 490 ft | 13 kts | 323° |
| 2026-04-29 15:01 | 43.63400 | 1.36425 | 494 ft | 14 kts | 323° |
| 2026-04-29 15:01 | 43.63488 | 1.36334 | 491 ft | 16 kts | 323° |
| 2026-04-29 15:01 | 43.63573 | 1.36245 | 494 ft | 14 kts | 323° |
| 2026-04-29 15:01 | 43.63648 | 1.36167 | 488 ft | 13 kts | 323° |
| 2026-04-29 15:02 | 43.63718 | 1.36094 | 491 ft | 16 kts | 323° |
| 2026-04-29 15:02 | 43.63805 | 1.36003 | 494 ft | 15 kts | 323° |
| 2026-04-29 15:02 | 43.63882 | 1.35923 | 492 ft | 13 kts | 323° |
| 2026-04-29 15:02 | 43.63978 | 1.35823 | 491 ft | 22 kts | 323° |
| 2026-04-29 15:03 | 43.64108 | 1.35689 | 488 ft | 23 kts | 323° |
| 2026-04-29 15:03 | 43.64221 | 1.35571 | 494 ft | 19 kts | 323° |
| 2026-04-29 15:03 | 43.64324 | 1.35464 | 490 ft | 18 kts | 323° |
| 2026-04-29 15:03 | 43.64415 | 1.35370 | 488 ft | 14 kts | 322° |
| 2026-04-29 15:04 | 43.64461 | 1.35265 | 488 ft | 12 kts | 289° |
| 2026-04-29 15:04 | 43.64487 | 1.35163 | 492 ft | 11 kts | 289° |
| 2026-04-29 15:04 | 43.64509 | 1.35074 | 490 ft | 9 kts | 289° |
| 2026-04-29 15:04 | 43.64529 | 1.34998 | 493 ft | 8 kts | 289° |
| 2026-04-29 15:05 | 43.64545 | 1.34933 | 494 ft | 7 kts | 289° |
| 2026-04-29 15:05 | 43.64543 | 1.34874 | 489 ft | 8 kts | 246° |
| 2026-04-29 15:05 | 43.64503 | 1.34796 | 490 ft | 9 kts | 233° |
| 2026-04-29 15:05 | 43.64466 | 1.34729 | 491 ft | 8 kts | 233° |
| 2026-04-29 15:06 | 43.64435 | 1.34673 | 487 ft | 8 kts | 233° |
| 2026-04-29 15:06 | 43.64408 | 1.34623 | 491 ft | 4 kts | 233° |
| 2026-04-29 15:06 | 43.64379 | 1.34625 | 491 ft | 7 kts | 145° |
| 2026-04-29 15:06 | 43.64330 | 1.34679 | 488 ft | 17 kts | 142° |
| 2026-04-29 15:07 | 43.64067 | 1.34954 | 491 ft | 81 kts | 143° |
| 2026-04-29 15:07 | 43.63458 | 1.35587 | 489 ft | 137 kts | 143° |
| 2026-04-29 15:07 | 43.62589 | 1.36494 | 674 ft | 163 kts | 142° |
| 2026-04-29 15:07 | 43.61701 | 1.37430 | 1350 ft | 160 kts | 141° |
| 2026-04-29 15:08 | 43.60827 | 1.38398 | 2058 ft | 160 kts | 140° |
| 2026-04-29 15:08 | 43.59937 | 1.39384 | 2636 ft | 172 kts | 141° |
| 2026-04-29 15:08 | 43.58945 | 1.40482 | 2970 ft | 195 kts | 141° |
| 2026-04-29 15:08 | 43.58051 | 1.41466 | 3273 ft | 210 kts | 142° |
| 2026-04-29 15:09 | 43.56830 | 1.42788 | 3592 ft | 235 kts | 142° |
| 2026-04-29 15:09 | 43.55469 | 1.44213 | 3997 ft | 258 kts | 143° |
| 2026-04-29 15:09 | 43.54235 | 1.46063 | 4670 ft | 270 kts | 115° |
| 2026-04-29 15:09 | 43.53922 | 1.48611 | 5481 ft | 276 kts | 81° |
| 2026-04-29 15:10 | 43.54687 | 1.51026 | 6302 ft | 281 kts | 52° |
| 2026-04-29 15:10 | 43.56074 | 1.52971 | 6755 ft | 286 kts | 40° |
| 2026-04-29 15:10 | 43.57644 | 1.54658 | 7023 ft | 288 kts | 37° |
| 2026-04-29 15:10 | 43.59251 | 1.56321 | 7891 ft | 289 kts | 38° |
| 2026-04-29 15:11 | 43.60830 | 1.58057 | 8718 ft | 292 kts | 40° |
| 2026-04-29 15:11 | 43.62381 | 1.59904 | 9513 ft | 296 kts | 42° |
| 2026-04-29 15:11 | 43.63906 | 1.61846 | 10247 ft | 303 kts | 44° |
| 2026-04-29 15:11 | 43.65478 | 1.63940 | 10511 ft | 326 kts | 45° |
| 2026-04-29 15:12 | 43.67140 | 1.66210 | 10891 ft | 342 kts | 45° |
| 2026-04-29 15:12 | 43.68286 | 1.67786 | 11333 ft | 346 kts | 45° |
| 2026-04-29 15:12 | 43.70619 | 1.70853 | 12243 ft | 353 kts | 39° |
| 2026-04-29 15:12 | 43.72596 | 1.72907 | 12922 ft | 358 kts | 37° |
| 2026-04-29 15:13 | 43.74608 | 1.74963 | 13576 ft | 363 kts | 37° |
| 2026-04-29 15:13 | 43.76660 | 1.77053 | 14229 ft | 367 kts | 37° |
| 2026-04-29 15:13 | 43.78725 | 1.79157 | 14845 ft | 371 kts | 37° |
| 2026-04-29 15:13 | 43.80817 | 1.81298 | 15459 ft | 375 kts | 37° |
| 2026-04-29 15:14 | 43.82925 | 1.83459 | 16066 ft | 379 kts | 37° |
| 2026-04-29 15:14 | 43.84986 | 1.85772 | 16629 ft | 384 kts | 45° |
| 2026-04-29 15:14 | 43.86728 | 1.88583 | 17201 ft | 387 kts | 56° |
| 2026-04-29 15:14 | 43.88099 | 1.91805 | 17755 ft | 390 kts | 63° |
| 2026-04-29 15:15 | 43.89398 | 1.95133 | 18304 ft | 394 kts | 63° |
| 2026-04-29 15:15 | 43.90543 | 1.98584 | 18841 ft | 396 kts | 72° |
| 2026-04-29 15:15 | 43.91043 | 2.01071 | 19191 ft | 397 kts | 81° |
| 2026-04-29 15:15 | 43.91334 | 2.04882 | 19712 ft | 398 kts | 92° |
| 2026-04-29 15:16 | 43.91075 | 2.08700 | 20230 ft | 399 kts | 104° |
| 2026-04-29 15:16 | 43.90450 | 2.12465 | 20738 ft | 402 kts | 105° |
| 2026-04-29 15:16 | 43.89813 | 2.16250 | 21232 ft | 405 kts | 105° |
| 2026-04-29 15:16 | 43.89172 | 2.20072 | 21728 ft | 409 kts | 105° |
| 2026-04-29 15:17 | 43.88530 | 2.23926 | 22205 ft | 412 kts | 105° |
| 2026-04-29 15:17 | 43.87882 | 2.27816 | 22689 ft | 416 kts | 105° |
| 2026-04-29 15:17 | 43.87224 | 2.31737 | 23141 ft | 419 kts | 105° |
| 2026-04-29 15:17 | 43.86555 | 2.35695 | 23578 ft | 423 kts | 105° |
| 2026-04-29 15:18 | 43.85880 | 2.39682 | 23996 ft | 427 kts | 105° |
| 2026-04-29 15:18 | 43.85201 | 2.43698 | 24395 ft | 430 kts | 105° |
| 2026-04-29 15:18 | 43.84517 | 2.47743 | 24764 ft | 433 kts | 105° |
| 2026-04-29 15:18 | 43.83827 | 2.51817 | 25141 ft | 436 kts | 105° |
| 2026-04-29 15:19 | 43.83129 | 2.55920 | 25504 ft | 439 kts | 105° |
| 2026-04-29 15:19 | 43.82426 | 2.60045 | 25844 ft | 442 kts | 106° |
| 2026-04-29 15:19 | 43.81712 | 2.64195 | 26185 ft | 444 kts | 106° |
| 2026-04-29 15:19 | 43.80991 | 2.68358 | 26544 ft | 446 kts | 106° |
| 2026-04-29 15:20 | 43.80262 | 2.72549 | 26873 ft | 449 kts | 106° |
| 2026-04-29 15:20 | 43.79530 | 2.76753 | 27176 ft | 451 kts | 106° |
| 2026-04-29 15:20 | 43.78790 | 2.80988 | 27442 ft | 454 kts | 106° |
| 2026-04-29 15:20 | 43.78046 | 2.85243 | 27724 ft | 456 kts | 106° |
| 2026-04-29 15:21 | 43.77297 | 2.89529 | 28027 ft | 459 kts | 106° |
| 2026-04-29 15:21 | 43.76536 | 2.93882 | 28322 ft | 461 kts | 106° |
| 2026-04-29 15:21 | 43.75789 | 2.98144 | 28622 ft | 462 kts | 107° |
| 2026-04-29 15:21 | 43.75017 | 3.02534 | 28878 ft | 465 kts | 107° |
| 2026-04-29 15:22 | 43.74249 | 3.06888 | 29129 ft | 467 kts | 107° |
| 2026-04-29 15:22 | 43.73475 | 3.11260 | 29405 ft | 468 kts | 107° |
| 2026-04-29 15:22 | 43.72700 | 3.15638 | 29694 ft | 470 kts | 107° |
| 2026-04-29 15:22 | 43.71921 | 3.20038 | 29963 ft | 472 kts | 107° |
| 2026-04-29 15:23 | 43.71139 | 3.24446 | 30205 ft | 474 kts | 107° |
| 2026-04-29 15:23 | 43.70349 | 3.28880 | 30419 ft | 476 kts | 107° |
| 2026-04-29 15:23 | 43.69551 | 3.33335 | 30698 ft | 477 kts | 107° |
| 2026-04-29 15:23 | 43.68750 | 3.37781 | 30956 ft | 478 kts | 107° |
| 2026-04-29 15:24 | 43.67945 | 3.42240 | 31244 ft | 478 kts | 107° |
| 2026-04-29 15:24 | 43.67140 | 3.46687 | 31590 ft | 477 kts | 107° |
| 2026-04-29 15:24 | 43.66334 | 3.51120 | 31926 ft | 475 kts | 106° |
| 2026-04-29 15:24 | 43.65529 | 3.55543 | 32245 ft | 475 kts | 105° |
| 2026-04-29 15:25 | 43.64725 | 3.59961 | 32546 ft | 474 kts | 105° |
| 2026-04-29 15:25 | 43.63921 | 3.64377 | 32832 ft | 474 kts | 105° |
| 2026-04-29 15:25 | 43.63117 | 3.68788 | 33000 ft | 474 kts | 105° |
| 2026-04-29 15:26 | 43.61535 | 3.77432 | 33027 ft | 458 kts | 105° |
| 2026-04-29 15:26 | 43.59968 | 3.85936 | 33032 ft | 456 kts | 106° |
| 2026-04-29 15:27 | 43.58265 | 3.94330 | 33029 ft | 453 kts | 114° |
| 2026-04-29 15:27 | 43.55090 | 4.01727 | 33032 ft | 447 kts | 133° |
| 2026-04-29 15:28 | 43.50960 | 4.08129 | 33032 ft | 447 kts | 134° |
| 2026-04-29 15:28 | 43.46830 | 4.14531 | 33029 ft | 447 kts | 134° |
| 2026-04-29 15:29 | 43.42697 | 4.20929 | 33028 ft | 447 kts | 134° |
| 2026-04-29 15:30 | 43.34425 | 4.33682 | 33023 ft | 447 kts | 134° |
| 2026-04-29 15:30 | 43.30259 | 4.40078 | 33023 ft | 446 kts | 134° |
| 2026-04-29 15:31 | 43.26115 | 4.46416 | 33020 ft | 446 kts | 134° |
| 2026-04-29 15:31 | 43.21968 | 4.52743 | 33019 ft | 446 kts | 134° |
| 2026-04-29 15:32 | 43.17812 | 4.59067 | 33019 ft | 446 kts | 134° |
| 2026-04-29 15:32 | 43.13655 | 4.65389 | 33021 ft | 447 kts | 134° |
| 2026-04-29 15:33 | 43.09500 | 4.71713 | 33021 ft | 446 kts | 134° |
| 2026-04-29 15:33 | 43.05346 | 4.78016 | 33021 ft | 446 kts | 134° |
| 2026-04-29 15:34 | 43.01178 | 4.84312 | 33021 ft | 446 kts | 134° |
| 2026-04-29 15:34 | 42.97014 | 4.90598 | 33017 ft | 447 kts | 134° |
| 2026-04-29 15:35 | 42.92826 | 4.96901 | 32986 ft | 448 kts | 134° |
| 2026-04-29 15:35 | 42.88671 | 5.03260 | 32973 ft | 451 kts | 128° |
| 2026-04-29 15:36 | 42.85630 | 5.10725 | 32978 ft | 453 kts | 114° |
| 2026-04-29 15:36 | 42.83122 | 5.18630 | 32980 ft | 455 kts | 114° |
| 2026-04-29 15:37 | 42.80584 | 5.26524 | 32981 ft | 455 kts | 114° |
| 2026-04-29 15:37 | 42.78036 | 5.34412 | 32982 ft | 455 kts | 114° |
| 2026-04-29 15:38 | 42.75487 | 5.42309 | 32988 ft | 456 kts | 114° |
| 2026-04-29 15:38 | 42.72939 | 5.50206 | 32984 ft | 456 kts | 114° |
| 2026-04-29 15:39 | 42.70366 | 5.58135 | 32996 ft | 456 kts | 115° |
| 2026-04-29 15:39 | 42.67801 | 5.66014 | 32989 ft | 456 kts | 115° |
| 2026-04-29 15:40 | 42.65233 | 5.73892 | 32992 ft | 456 kts | 115° |
| 2026-04-29 15:40 | 42.62661 | 5.81767 | 32995 ft | 456 kts | 115° |
| 2026-04-29 15:41 | 42.60085 | 5.89627 | 32983 ft | 456 kts | 115° |
| 2026-04-29 15:41 | 42.57503 | 5.97474 | 32982 ft | 455 kts | 115° |
| 2026-04-29 15:42 | 42.54911 | 6.05312 | 32994 ft | 455 kts | 115° |
| 2026-04-29 15:42 | 42.52315 | 6.13144 | 32989 ft | 455 kts | 115° |
| 2026-04-29 15:43 | 42.49724 | 6.20969 | 32996 ft | 455 kts | 115° |
| 2026-04-29 15:43 | 42.47120 | 6.28792 | 32993 ft | 455 kts | 115° |
| 2026-04-29 15:44 | 42.44507 | 6.36610 | 32987 ft | 455 kts | 115° |
| 2026-04-29 15:44 | 42.41892 | 6.44415 | 33000 ft | 455 kts | 115° |
| 2026-04-29 15:45 | 42.39270 | 6.52217 | 33007 ft | 455 kts | 115° |
| 2026-04-29 15:45 | 42.37958 | 6.56110 | 32740 ft | 455 kts | 114° |
| 2026-04-29 15:45 | 42.36714 | 6.60057 | 32090 ft | 455 kts | 111° |
| 2026-04-29 15:45 | 42.35603 | 6.64044 | 31588 ft | 451 kts | 109° |
| 2026-04-29 15:46 | 42.34588 | 6.68030 | 31073 ft | 448 kts | 108° |
| 2026-04-29 15:46 | 42.33610 | 6.72013 | 30565 ft | 444 kts | 108° |
| 2026-04-29 15:46 | 42.32638 | 6.75955 | 30070 ft | 441 kts | 109° |
| 2026-04-29 15:46 | 42.31650 | 6.79859 | 29586 ft | 437 kts | 109° |
| 2026-04-29 15:47 | 42.30645 | 6.83711 | 29112 ft | 433 kts | 110° |
| 2026-04-29 15:47 | 42.29618 | 6.87570 | 28643 ft | 429 kts | 110° |
| 2026-04-29 15:47 | 42.28945 | 6.90074 | 28342 ft | 427 kts | 110° |
| 2026-04-29 15:47 | 42.27936 | 6.93820 | 27888 ft | 423 kts | 110° |
| 2026-04-29 15:48 | 42.26933 | 6.97541 | 27425 ft | 420 kts | 111° |
| 2026-04-29 15:48 | 42.25938 | 7.01229 | 26976 ft | 416 kts | 111° |
| 2026-04-29 15:48 | 42.24952 | 7.04882 | 26514 ft | 413 kts | 111° |
| 2026-04-29 15:48 | 42.23975 | 7.08512 | 26053 ft | 410 kts | 111° |
| 2026-04-29 15:49 | 42.23006 | 7.12124 | 25583 ft | 408 kts | 111° |
| 2026-04-29 15:49 | 42.22045 | 7.15715 | 25109 ft | 405 kts | 111° |
| 2026-04-29 15:49 | 42.21091 | 7.19278 | 24623 ft | 403 kts | 111° |
| 2026-04-29 15:49 | 42.20136 | 7.22827 | 24132 ft | 401 kts | 111° |
| 2026-04-29 15:50 | 42.19184 | 7.26353 | 23638 ft | 399 kts | 111° |
| 2026-04-29 15:50 | 42.18238 | 7.29851 | 23146 ft | 397 kts | 112° |
| 2026-04-29 15:50 | 42.17293 | 7.33345 | 22663 ft | 395 kts | 112° |
| 2026-04-29 15:50 | 42.16352 | 7.36808 | 22181 ft | 393 kts | 112° |
| 2026-04-29 15:51 | 42.15409 | 7.40260 | 21713 ft | 391 kts | 112° |
| 2026-04-29 15:51 | 42.14471 | 7.43689 | 21243 ft | 389 kts | 112° |
| 2026-04-29 15:51 | 42.13541 | 7.47101 | 20777 ft | 387 kts | 112° |
| 2026-04-29 15:51 | 42.12620 | 7.50493 | 20322 ft | 385 kts | 112° |
| 2026-04-29 15:52 | 42.11704 | 7.53865 | 19918 ft | 381 kts | 112° |
| 2026-04-29 15:52 | 42.10793 | 7.57203 | 19418 ft | 380 kts | 113° |
| 2026-04-29 15:52 | 42.09871 | 7.60564 | 18961 ft | 374 kts | 113° |
| 2026-04-29 15:52 | 42.08986 | 7.63793 | 18510 ft | 361 kts | 113° |
| 2026-04-29 15:53 | 42.08131 | 7.66908 | 18095 ft | 348 kts | 113° |
| 2026-04-29 15:53 | 42.07300 | 7.69929 | 17694 ft | 344 kts | 114° |
| 2026-04-29 15:53 | 42.06467 | 7.72943 | 17287 ft | 343 kts | 114° |
| 2026-04-29 15:53 | 42.05635 | 7.75952 | 16885 ft | 342 kts | 114° |
| 2026-04-29 15:54 | 42.04807 | 7.78948 | 16489 ft | 342 kts | 114° |
| 2026-04-29 15:54 | 42.03983 | 7.81940 | 16099 ft | 341 kts | 113° |
| 2026-04-29 15:54 | 42.03160 | 7.84926 | 15660 ft | 341 kts | 112° |
| 2026-04-29 15:54 | 42.02332 | 7.87915 | 15254 ft | 340 kts | 112° |
| 2026-04-29 15:55 | 42.01506 | 7.90886 | 14859 ft | 339 kts | 112° |
| 2026-04-29 15:55 | 42.00683 | 7.93841 | 14470 ft | 337 kts | 112° |
| 2026-04-29 15:55 | 41.99864 | 7.96789 | 14073 ft | 336 kts | 112° |
| 2026-04-29 15:55 | 41.99103 | 7.99747 | 13685 ft | 335 kts | 105° |
| 2026-04-29 15:56 | 41.98851 | 8.02851 | 13296 ft | 335 kts | 89° |
| 2026-04-29 15:56 | 41.99246 | 8.05927 | 12897 ft | 335 kts | 72° |
| 2026-04-29 15:56 | 42.00211 | 8.08766 | 12488 ft | 334 kts | 62° |
| 2026-04-29 15:56 | 42.01300 | 8.11515 | 12078 ft | 333 kts | 62° |
| 2026-04-29 15:57 | 42.02382 | 8.14260 | 11659 ft | 331 kts | 62° |
| 2026-04-29 15:57 | 42.03456 | 8.16993 | 11244 ft | 330 kts | 62° |
| 2026-04-29 15:57 | 42.04521 | 8.19713 | 10824 ft | 328 kts | 63° |
| 2026-04-29 15:57 | 42.05582 | 8.22424 | 10398 ft | 327 kts | 63° |
| 2026-04-29 15:58 | 42.06626 | 8.25094 | 10225 ft | 317 kts | 63° |
| 2026-04-29 15:58 | 42.07627 | 8.27660 | 9883 ft | 305 kts | 63° |
| 2026-04-29 15:58 | 42.08606 | 8.30166 | 9273 ft | 300 kts | 63° |
| 2026-04-29 15:58 | 42.09569 | 8.32625 | 8759 ft | 293 kts | 63° |
| 2026-04-29 15:59 | 42.10501 | 8.35005 | 8341 ft | 282 kts | 63° |
| 2026-04-29 15:59 | 42.11398 | 8.37300 | 7949 ft | 274 kts | 63° |
| 2026-04-29 15:59 | 42.12285 | 8.39575 | 7539 ft | 274 kts | 63° |
| 2026-04-29 15:59 | 42.13171 | 8.41851 | 7133 ft | 274 kts | 63° |
| 2026-04-29 16:00 | 42.14059 | 8.44130 | 6722 ft | 274 kts | 64° |
| 2026-04-29 16:00 | 42.14644 | 8.46545 | 6337 ft | 271 kts | 85° |
| 2026-04-29 16:00 | 42.14510 | 8.49043 | 5934 ft | 268 kts | 107° |
| 2026-04-29 16:00 | 42.13697 | 8.51286 | 5653 ft | 270 kts | 128° |
| 2026-04-29 16:01 | 42.12355 | 8.53047 | 5361 ft | 270 kts | 141° |
| 2026-04-29 16:01 | 42.10908 | 8.54668 | 5053 ft | 270 kts | 141° |
| 2026-04-29 16:01 | 42.09470 | 8.56281 | 4771 ft | 269 kts | 141° |
| 2026-04-29 16:01 | 42.08039 | 8.57888 | 4471 ft | 267 kts | 141° |
| 2026-04-29 16:02 | 42.06598 | 8.59507 | 4174 ft | 265 kts | 141° |
| 2026-04-29 16:02 | 42.05198 | 8.61075 | 3884 ft | 259 kts | 140° |
| 2026-04-29 16:02 | 42.03830 | 8.62607 | 3601 ft | 252 kts | 140° |
| 2026-04-29 16:02 | 42.02498 | 8.64101 | 3327 ft | 246 kts | 140° |
| 2026-04-29 16:03 | 42.01334 | 8.65733 | 3083 ft | 239 kts | 123° |
| 2026-04-29 16:03 | 42.00650 | 8.67719 | 2985 ft | 231 kts | 104° |
| 2026-04-29 16:03 | 42.00368 | 8.69762 | 2993 ft | 213 kts | 100° |
| 2026-04-29 16:03 | 42.00120 | 8.71682 | 3001 ft | 205 kts | 100° |
| 2026-04-29 16:04 | 41.99874 | 8.73557 | 2993 ft | 203 kts | 100° |
| 2026-04-29 16:04 | 41.99628 | 8.75432 | 2632 ft | 201 kts | 100° |
| 2026-04-29 16:04 | 41.99393 | 8.77216 | 2308 ft | 187 kts | 101° |
| 2026-04-29 16:04 | 41.99177 | 8.78866 | 1973 ft | 170 kts | 101° |
| 2026-04-29 16:05 | 41.98986 | 8.80346 | 1727 ft | 154 kts | 102° |
| 2026-04-29 16:05 | 41.98608 | 8.81607 | 1488 ft | 142 kts | 128° |
| 2026-04-29 16:05 | 41.97882 | 8.82446 | 1291 ft | 137 kts | 154° |
| 2026-04-29 16:05 | 41.96974 | 8.82774 | 1075 ft | 135 kts | 179° |
| 2026-04-29 16:06 | 41.96062 | 8.82537 | 835 ft | 135 kts | 204° |
| 2026-04-29 16:06 | 41.95215 | 8.82000 | 644 ft | 135 kts | 205° |
| 2026-04-29 16:06 | 41.94363 | 8.81467 | 429 ft | 135 kts | 204° |
| 2026-04-29 16:06 | 41.93510 | 8.80937 | 212 ft | 135 kts | 204° |
| 2026-04-29 16:07 | 41.92659 | 8.80410 | 30 ft | 128 kts | 204° |
| 2026-04-29 16:07 | 41.91943 | 8.79962 | 24 ft | 99 kts | 205° |
| 2026-04-29 16:07 | 41.91627 | 8.79767 | 25 ft | 32 kts | 204° |
| 2026-04-29 16:07 | 41.91429 | 8.79644 | 25 ft | 30 kts | 205° |
| 2026-04-29 16:08 | 41.91338 | 8.79587 | 23 ft | 12 kts | 205° |
| 2026-04-29 16:08 | 41.91256 | 8.79529 | 24 ft | 14 kts | 222° |
| 2026-04-29 16:08 | 41.91263 | 8.79420 | 24 ft | 12 kts | 323° |
| 2026-04-29 16:08 | 41.91322 | 8.79380 | 24 ft | 0 kts | 333° |
| 2026-04-29 16:10 | 41.91357 | 8.79357 | 24 ft | 8 kts | 334° |
| 2026-04-29 16:10 | 41.91405 | 8.79335 | 24 ft | 7 kts | 348° |
| 2026-04-29 16:10 | 41.91453 | 8.79336 | 24 ft | 9 kts | 8° |
| 2026-04-29 16:10 | 41.91519 | 8.79368 | 24 ft | 10 kts | 24° |
| 2026-04-29 16:11 | 41.91579 | 8.79405 | 26 ft | 12 kts | 25° |
| 2026-04-29 16:11 | 41.91666 | 8.79461 | 25 ft | 13 kts | 25° |
| 2026-04-29 16:11 | 41.91744 | 8.79509 | 25 ft | 12 kts | 25° |
| 2026-04-29 16:11 | 41.91812 | 8.79552 | 26 ft | 10 kts | 24° |
| 2026-04-29 16:12 | 41.91856 | 8.79579 | 25 ft | 2 kts | 25° |
| 2026-04-29 16:12 | 41.91870 | 8.79585 | 25 ft | 4 kts | 12° |
| 2026-04-29 16:12 | 41.91900 | 8.79562 | 26 ft | 3 kts | 298° |
| 2026-04-29 16:12 | 41.91906 | 8.79543 | 25 ft | 2 kts | 298° |
| 2026-04-29 16:13 | 41.91909 | 8.79535 | 27 ft | 0 kts | 301° |